createdAt,value
2019-03-04T00:00:52.579Z,5.37
2019-03-04T00:03:21.108Z,5.33
2019-03-04T00:05:49.569Z,8.87
2019-03-04T00:08:18.180Z,7.63
2019-03-04T00:10:46.697Z,6.33
2019-03-04T00:13:15.147Z,6.97
2019-03-04T00:15:43.697Z,7.53
2019-03-04T00:18:12.312Z,9.50
2019-03-04T00:20:40.776Z,6.70
2019-03-04T00:23:09.456Z,4.67
2019-03-04T00:25:38.017Z,4.43
2019-03-04T00:28:07.036Z,6.27
2019-03-04T00:30:35.494Z,7.17
2019-03-04T00:33:04.116Z,7.40
2019-03-04T00:35:32.602Z,5.00
2019-03-04T00:38:01.068Z,5.13
2019-03-04T00:40:48.898Z,6.37
2019-03-04T00:43:17.351Z,4.57
2019-03-04T00:45:45.823Z,7.43
2019-03-04T00:48:14.373Z,4.70
2019-03-04T00:50:42.836Z,5.67
2019-03-04T00:53:11.336Z,5.30
2019-03-04T00:55:39.904Z,7.30
2019-03-04T00:58:08.366Z,5.77
2019-03-04T01:00:37.001Z,5.13
2019-03-04T01:03:05.882Z,7.63
2019-03-04T01:05:34.412Z,5.77
2019-03-04T01:08:02.893Z,3.40
2019-03-04T01:10:31.451Z,4.13
2019-03-04T01:13:00.052Z,4.07
2019-03-04T01:15:33.339Z,5.80
2019-03-04T01:18:01.864Z,5.17
2019-03-04T01:20:30.329Z,5.37
2019-03-04T01:22:58.780Z,5.10
2019-03-04T01:25:27.312Z,5.00
2019-03-04T01:27:55.799Z,5.37
2019-03-04T01:30:24.642Z,6.73
2019-03-04T01:32:53.663Z,4.90
2019-03-04T01:35:22.268Z,4.30
2019-03-04T01:37:50.879Z,4.53
2019-03-04T01:40:23.860Z,3.57
2019-03-04T01:42:52.548Z,4.53
2019-03-04T01:45:21.006Z,4.07
2019-03-04T01:47:49.542Z,4.00
2019-03-04T01:50:19.005Z,5.47
2019-03-04T01:52:47.645Z,3.03
2019-03-04T01:55:17.787Z,4.03
2019-03-04T01:57:46.304Z,4.70
2019-03-04T02:00:17.278Z,3.97
2019-03-04T02:02:46.474Z,5.80
2019-03-04T02:05:15.213Z,2.27
2019-03-04T02:07:43.847Z,4.10
2019-03-04T02:10:16.840Z,4.83
2019-03-04T02:12:45.950Z,2.83
2019-03-04T02:15:19.557Z,3.43
2019-03-04T02:17:48.122Z,2.90
2019-03-04T02:20:18.361Z,3.50
2019-03-04T02:22:47.251Z,2.77
2019-03-04T02:25:18.436Z,2.60
2019-03-04T02:27:52.810Z,2.23
2019-03-04T02:30:24.028Z,3.67
2019-03-04T02:32:52.571Z,3.23
2019-03-04T02:35:21.091Z,4.37
2019-03-04T02:37:49.581Z,3.57
2019-03-04T02:40:18.173Z,2.33
2019-03-04T02:42:46.698Z,2.53
2019-03-04T02:45:17.718Z,3.20
2019-03-04T02:47:47.022Z,1.67
2019-03-04T02:50:16.595Z,3.37
2019-03-04T02:52:45.230Z,3.50
2019-03-04T02:55:17.380Z,3.03
2019-03-04T02:57:45.927Z,2.37
2019-03-04T03:00:18.725Z,3.87
2019-03-04T03:02:47.242Z,2.87
2019-03-04T03:05:15.855Z,1.50
2019-03-04T03:07:44.375Z,2.07
2019-03-04T03:10:14.325Z,2.40
2019-03-04T03:12:42.890Z,1.87
2019-03-04T03:15:17.020Z,2.47
2019-03-04T03:17:45.581Z,2.03
2019-03-04T03:20:14.896Z,2.43
2019-03-04T03:22:43.733Z,1.70
2019-03-04T03:25:13.569Z,2.47
2019-03-04T03:27:42.127Z,2.20
2019-03-04T03:30:18.625Z,2.73
2019-03-04T03:32:47.184Z,2.60
2019-03-04T03:35:15.774Z,2.43
2019-03-04T03:37:44.357Z,3.07
2019-03-04T03:40:21.064Z,3.00
2019-03-04T03:42:49.590Z,3.00
2019-03-04T03:45:18.257Z,3.57
2019-03-04T03:47:46.739Z,3.93
2019-03-04T03:50:16.441Z,4.90
2019-03-04T03:52:46.012Z,2.73
2019-03-04T03:55:16.203Z,3.00
2019-03-04T03:58:04.086Z,4.60
2019-03-04T04:00:32.644Z,2.73
2019-03-04T04:03:01.221Z,5.23
2019-03-04T04:05:29.857Z,3.23
2019-03-04T04:07:58.322Z,2.63
2019-03-04T04:10:26.853Z,2.57
2019-03-04T04:12:55.453Z,2.17
2019-03-04T04:15:25.496Z,2.57
2019-03-04T04:17:53.975Z,2.40
2019-03-04T04:20:22.535Z,3.00
2019-03-04T04:22:51.005Z,2.60
2019-03-04T04:25:19.597Z,2.70
2019-03-04T04:27:48.149Z,2.37
2019-03-04T04:30:24.844Z,2.20
2019-03-04T04:32:53.364Z,2.67
2019-03-04T04:35:21.861Z,2.30
2019-03-04T04:37:50.452Z,2.87
2019-03-04T04:40:18.910Z,3.40
2019-03-04T04:42:47.480Z,2.83
2019-03-04T04:45:15.970Z,3.27
2019-03-04T04:47:44.708Z,3.63
2019-03-04T04:50:22.076Z,2.57
2019-03-04T04:52:50.551Z,2.10
2019-03-04T04:55:19.072Z,2.33
2019-03-04T04:57:47.636Z,2.07
2019-03-04T05:00:18.340Z,2.23
2019-03-04T05:02:46.855Z,3.00
2019-03-04T05:05:15.426Z,3.90
2019-03-04T05:07:44.021Z,2.00
2019-03-04T05:10:17.691Z,2.27
2019-03-04T05:12:46.346Z,1.90
2019-03-04T05:15:16.344Z,3.60
2019-03-04T05:17:47.540Z,1.83
2019-03-04T05:20:24.126Z,3.13
2019-03-04T05:22:52.660Z,2.70
2019-03-04T05:25:21.112Z,1.93
2019-03-04T05:27:49.669Z,2.43
2019-03-04T05:30:22.531Z,1.97
2019-03-04T05:32:51.232Z,1.43
2019-03-04T05:35:19.697Z,2.67
2019-03-04T05:37:48.166Z,1.33
2019-03-04T05:40:21.070Z,2.70
2019-03-04T05:42:49.606Z,2.43
2019-03-04T05:45:18.806Z,1.80
2019-03-04T05:47:47.726Z,1.90
2019-03-04T05:50:21.885Z,1.50
2019-03-04T05:52:50.348Z,1.73
2019-03-04T05:55:18.949Z,1.63
2019-03-04T05:57:47.493Z,1.60
2019-03-04T06:00:25.392Z,0.90
2019-03-04T06:02:56.932Z,1.67
2019-03-04T06:05:25.411Z,2.07
2019-03-04T06:07:55.530Z,1.50
2019-03-04T06:10:24.002Z,1.27
2019-03-04T06:12:52.556Z,0.83
2019-03-04T06:15:21.707Z,1.83
2019-03-04T06:17:50.161Z,1.53
2019-03-04T06:20:20.258Z,2.00
2019-03-04T06:22:49.236Z,2.20
2019-03-04T06:25:30.061Z,1.67
2019-03-04T06:27:58.707Z,2.63
2019-03-04T06:30:28.824Z,2.63
2019-03-04T06:32:57.362Z,3.17
2019-03-04T06:35:25.847Z,1.30
2019-03-04T06:37:54.308Z,1.80
2019-03-04T06:40:24.181Z,2.70
2019-03-04T06:42:54.209Z,1.40
2019-03-04T06:45:22.860Z,3.30
2019-03-04T06:47:51.413Z,1.27
2019-03-04T06:50:51.584Z,1.43
2019-03-04T06:53:42.322Z,1.70
2019-03-04T06:56:28.764Z,2.73
2019-03-04T06:59:06.139Z,3.40
2019-03-04T07:01:55.789Z,0.85
2019-03-04T07:04:32.524Z,2.97
2019-03-04T07:07:01.066Z,3.83
2019-03-04T07:09:30.238Z,2.57
2019-03-04T07:11:58.688Z,3.93
2019-03-04T07:14:27.182Z,3.23
2019-03-04T07:16:55.634Z,5.33
2019-03-04T07:19:24.103Z,5.03
2019-03-04T07:21:52.587Z,2.70
2019-03-04T07:24:21.185Z,4.00
2019-03-04T07:26:49.719Z,3.73
2019-03-04T07:29:18.202Z,2.10
2019-03-04T07:31:46.740Z,4.97
2019-03-04T07:34:15.480Z,4.17
2019-03-04T07:36:44.017Z,3.87
2019-03-04T07:39:13.165Z,4.03
2019-03-04T07:41:41.805Z,5.27
2019-03-04T07:44:10.378Z,2.87
2019-03-04T07:46:38.984Z,6.77
2019-03-04T07:49:07.476Z,5.33
2019-03-04T07:51:36.052Z,5.77
2019-03-04T07:54:05.152Z,5.83
2019-03-04T07:56:33.894Z,9.57
2019-03-04T07:59:02.531Z,4.77
2019-03-04T08:01:50.325Z,4.50
2019-03-04T08:04:18.834Z,3.67
2019-03-04T08:06:47.375Z,4.73
2019-03-04T08:09:19.233Z,5.53
2019-03-04T08:12:10.583Z,7.37
2019-03-04T08:14:39.098Z,5.57
2019-03-04T08:17:07.556Z,3.13
2019-03-04T08:19:36.142Z,5.80
2019-03-04T08:22:04.861Z,5.00
2019-03-04T08:24:33.590Z,8.50
2019-03-04T08:27:02.168Z,8.23
2019-03-04T08:29:30.744Z,2.87
2019-03-04T08:31:59.288Z,8.40
2019-03-04T08:34:31.048Z,4.97
2019-03-04T08:36:58.004Z,4.17
2019-03-04T08:39:26.508Z,4.80
2019-03-04T08:41:55.073Z,6.40
2019-03-04T08:44:23.556Z,8.57
2019-03-04T08:46:52.024Z,7.90
2019-03-04T08:49:20.597Z,6.77
2019-03-04T08:51:49.097Z,4.27
2019-03-04T08:54:17.564Z,5.47
2019-03-04T08:56:46.025Z,10.53
2019-03-04T08:59:14.576Z,4.83
2019-03-04T09:01:43.177Z,4.87
2019-03-04T09:04:11.693Z,5.10
2019-03-04T09:06:42.069Z,4.57
2019-03-04T09:09:10.732Z,5.70
2019-03-04T09:11:39.434Z,4.50
2019-03-04T09:14:07.965Z,5.23
2019-03-04T09:16:36.512Z,8.77
2019-03-04T09:19:05.066Z,5.23
2019-03-04T09:21:33.534Z,5.40
2019-03-04T09:24:02.013Z,9.30
2019-03-04T09:26:30.529Z,7.77
2019-03-04T09:28:58.985Z,5.80
2019-03-04T09:31:27.980Z,3.83
2019-03-04T09:33:56.560Z,4.10
2019-03-04T09:36:25.110Z,5.07
2019-03-04T09:38:53.563Z,4.00
2019-03-04T09:41:22.106Z,4.07
2019-03-04T09:43:50.644Z,4.03
2019-03-04T09:46:19.209Z,2.80
2019-03-04T09:48:47.759Z,3.60
2019-03-04T09:51:23.979Z,0.80
2019-03-04T09:53:46.439Z,1.80
2019-03-04T09:56:15.008Z,1.77
2019-03-04T09:58:43.455Z,0.97
2019-03-04T10:01:24.172Z,1.33
2019-03-04T10:04:07.388Z,2.47
2019-03-04T10:06:53.787Z,1.43
2019-03-04T10:09:41.788Z,1.13
2019-03-04T10:12:21.860Z,1.43
2019-03-04T10:15:14.439Z,1.20
2019-03-04T10:18:08.346Z,1.73
2019-03-04T10:20:57.917Z,1.70
2019-03-04T10:23:32.036Z,1.67
2019-03-04T10:26:35.556Z,1.43
2019-03-04T10:29:23.376Z,1.47
2019-03-04T10:32:04.106Z,0.80
2019-03-04T10:34:50.727Z,0.80
2019-03-04T10:37:49.047Z,1.43
2019-03-04T10:40:44.658Z,1.03
2019-03-04T10:43:34.065Z,0.80
2019-03-04T10:46:05.625Z,0.90
2019-03-04T10:48:34.207Z,0.90
2019-03-04T10:51:02.816Z,1.50
2019-03-04T10:53:31.397Z,1.03
2019-03-04T10:55:59.864Z,2.13
2019-03-04T10:58:28.392Z,1.47
2019-03-04T11:00:58.232Z,0.80
2019-03-04T11:03:26.692Z,2.87
2019-03-04T11:05:55.255Z,2.17
2019-03-04T11:08:23.819Z,1.90
2019-03-04T11:10:52.273Z,1.10
2019-03-04T11:13:20.740Z,2.67
2019-03-04T11:15:49.289Z,2.93
2019-03-04T11:18:17.782Z,5.00
2019-03-04T11:20:46.303Z,3.80
2019-03-04T11:23:15.196Z,2.60
2019-03-04T11:25:43.801Z,2.93
2019-03-04T11:28:12.321Z,3.27
2019-03-04T11:30:40.877Z,1.40
2019-03-04T11:33:09.338Z,4.43
2019-03-04T11:35:37.791Z,2.47
2019-03-04T11:38:08.856Z,4.57
2019-03-04T11:40:40.432Z,4.77
2019-03-04T11:43:09.105Z,2.83
2019-03-04T11:45:37.617Z,4.17
2019-03-04T11:48:06.229Z,4.27
2019-03-04T11:50:34.772Z,4.80
2019-03-04T11:53:03.325Z,2.87
2019-03-04T11:55:35.039Z,6.13
2019-03-04T11:58:03.603Z,6.83
2019-03-04T12:00:41.803Z,3.70
2019-03-04T12:03:10.277Z,6.67
2019-03-04T12:05:38.889Z,7.87
2019-03-04T12:08:07.492Z,6.33
2019-03-04T12:10:36.946Z,8.27
2019-03-04T12:13:05.840Z,4.77
2019-03-04T12:15:34.500Z,6.37
2019-03-04T12:18:03.293Z,5.77
2019-03-04T12:20:31.834Z,6.47
2019-03-04T12:23:00.386Z,8.27
2019-03-04T12:25:28.924Z,7.07
2019-03-04T12:27:57.412Z,3.50
2019-03-04T12:30:27.752Z,8.90
2019-03-04T12:32:56.316Z,8.00
2019-03-04T12:35:24.836Z,2.90
2019-03-04T12:37:53.454Z,6.43
2019-03-04T12:40:23.387Z,7.30
2019-03-04T12:42:51.924Z,6.97
2019-03-04T12:45:33.995Z,8.47
2019-03-04T12:47:54.931Z,4.97
2019-03-04T12:50:25.645Z,7.37
2019-03-04T12:52:55.288Z,2.83
2019-03-04T12:55:23.912Z,4.97
2019-03-04T12:57:52.446Z,5.77
2019-03-04T13:00:31.422Z,4.93
2019-03-04T13:03:00.246Z,1.37
2019-03-04T13:05:28.781Z,7.07
2019-03-04T13:07:57.419Z,6.17
2019-03-04T13:10:27.587Z,5.73
2019-03-04T13:12:56.103Z,5.23
2019-03-04T13:15:27.485Z,8.63
2019-03-04T13:17:56.009Z,3.53
2019-03-04T13:20:27.488Z,5.03
2019-03-04T13:22:56.066Z,5.30
2019-03-04T13:25:24.689Z,6.00
2019-03-04T13:27:53.222Z,5.57
2019-03-04T13:30:24.781Z,5.33
2019-03-04T13:32:53.399Z,5.43
2019-03-04T13:35:44.479Z,6.67
2019-03-04T13:38:13.097Z,3.50
2019-03-04T13:40:41.617Z,5.07
2019-03-04T13:43:10.216Z,7.07
2019-03-04T13:45:38.791Z,5.53
2019-03-04T13:48:07.320Z,3.50
2019-03-04T13:50:37.592Z,7.10
2019-03-04T13:53:06.504Z,5.93
2019-03-04T13:55:34.964Z,3.37
2019-03-04T13:58:03.564Z,7.13
2019-03-04T14:00:40.556Z,5.87
2019-03-04T14:03:12.099Z,4.00
2019-03-04T14:05:40.632Z,3.83
2019-03-04T14:08:09.364Z,4.93
2019-03-04T14:10:46.431Z,4.63
2019-03-04T14:13:15.084Z,5.07
2019-03-04T14:15:52.452Z,5.17
2019-03-04T14:18:21.011Z,3.47
2019-03-04T14:20:49.553Z,5.37
2019-03-04T14:23:18.170Z,3.90
2019-03-04T14:25:46.816Z,5.07
2019-03-04T14:28:15.395Z,4.43
2019-03-04T14:30:43.856Z,2.73
2019-03-04T14:33:12.330Z,3.90
2019-03-04T14:35:40.884Z,4.93
2019-03-04T14:38:09.438Z,4.50
2019-03-04T14:40:38.027Z,1.90
2019-03-04T14:43:06.605Z,4.13
2019-03-04T14:45:35.123Z,3.10
2019-03-04T14:48:03.713Z,5.20
2019-03-04T14:50:32.197Z,4.00
2019-03-04T14:53:00.748Z,5.73
2019-03-04T14:55:40.605Z,2.33
2019-03-04T14:58:09.086Z,3.03
2019-03-04T15:00:44.244Z,3.57
2019-03-04T15:03:22.034Z,4.83
2019-03-04T15:05:43.125Z,3.10
2019-03-04T15:08:11.773Z,8.70
2019-03-04T15:10:40.445Z,4.50
2019-03-04T15:13:09.941Z,4.87
2019-03-04T15:15:39.144Z,4.63
2019-03-04T15:18:08.028Z,3.97
2019-03-04T15:20:37.739Z,6.50
2019-03-04T15:23:06.517Z,2.67
2019-03-04T15:25:40.377Z,6.00
2019-03-04T15:28:26.056Z,5.13
2019-03-04T15:31:02.333Z,5.07
2019-03-04T15:33:30.849Z,5.83
2019-03-04T15:35:59.381Z,4.47
2019-03-04T15:38:28.006Z,5.30
2019-03-04T15:40:56.481Z,7.63
2019-03-04T15:43:25.070Z,4.07
2019-03-04T15:45:55.193Z,4.87
2019-03-04T15:48:28.394Z,6.63
2019-03-04T15:50:56.531Z,5.77
2019-03-04T15:53:25.248Z,5.70
2019-03-04T15:55:53.790Z,6.80
2019-03-04T15:58:22.403Z,5.47
2019-03-04T16:00:50.954Z,4.97
2019-03-04T16:03:19.723Z,4.67
2019-03-04T16:05:48.531Z,3.90
2019-03-04T16:08:17.322Z,4.17
2019-03-04T16:10:45.919Z,4.83
2019-03-04T16:13:14.527Z,5.33
2019-03-04T16:15:46.112Z,4.63
2019-03-04T16:18:14.872Z,4.03
2019-03-04T16:20:43.940Z,5.67
2019-03-04T16:23:12.494Z,4.30
2019-03-04T16:25:41.081Z,4.07
2019-03-04T16:28:21.770Z,9.53
2019-03-04T16:30:50.933Z,4.43
2019-03-04T16:33:19.728Z,2.73
2019-03-04T16:35:48.392Z,4.70
2019-03-04T16:38:16.988Z,3.27
2019-03-04T16:40:45.515Z,8.37
2019-03-04T16:43:14.028Z,3.17
2019-03-04T16:45:43.060Z,3.13
2019-03-04T16:48:11.805Z,5.47
2019-03-04T16:50:42.308Z,2.10
2019-03-04T16:53:21.540Z,2.83
2019-03-04T16:55:50.123Z,4.53
2019-03-04T16:58:18.569Z,4.50
2019-03-04T17:00:47.544Z,4.03
2019-03-04T17:03:16.167Z,4.10
2019-03-04T17:05:46.343Z,4.43
2019-03-04T17:08:14.921Z,3.13
2019-03-04T17:10:43.621Z,2.67
2019-03-04T17:13:12.136Z,5.07
2019-03-04T17:15:40.663Z,4.93
2019-03-04T17:18:09.297Z,4.40
2019-03-04T17:20:37.755Z,4.70
2019-03-04T17:23:08.187Z,3.53
2019-03-04T17:25:36.803Z,4.43
2019-03-04T17:28:05.300Z,3.10
2019-03-04T17:30:33.942Z,5.87
2019-03-04T17:33:02.505Z,6.03
2019-03-04T17:35:30.981Z,3.27
2019-03-04T17:37:59.490Z,5.03
2019-03-04T17:40:30.084Z,4.67
2019-03-04T17:42:58.607Z,5.77
2019-03-04T17:45:28.545Z,4.30
2019-03-04T17:47:57.032Z,2.93
2019-03-04T17:50:46.338Z,5.60
2019-03-04T17:53:16.637Z,3.50
2019-03-04T17:55:45.813Z,3.10
2019-03-04T17:58:14.642Z,3.10
2019-03-04T18:00:44.849Z,4.23
2019-03-04T18:03:13.402Z,6.80
2019-03-04T18:05:42.013Z,5.80
2019-03-04T18:08:10.498Z,5.20
2019-03-04T18:10:39.538Z,7.10
2019-03-04T18:13:11.000Z,7.20
2019-03-04T18:15:41.213Z,7.93
2019-03-04T18:18:09.702Z,8.97
2019-03-04T18:20:38.326Z,9.93
2019-03-04T18:23:07.015Z,6.83
2019-03-04T18:25:41.505Z,8.30
2019-03-04T18:28:40.447Z,5.67
2019-03-04T18:31:23.409Z,8.87
2019-03-04T18:34:00.725Z,8.43
2019-03-04T18:36:50.072Z,9.03
2019-03-04T18:39:30.689Z,7.50
2019-03-04T18:42:24.721Z,7.57
2019-03-04T18:45:17.598Z,4.57
2019-03-04T18:47:51.960Z,7.13
2019-03-04T18:50:20.435Z,6.77
2019-03-04T18:52:49.232Z,7.30
2019-03-04T18:55:17.903Z,5.50
2019-03-04T18:57:46.428Z,3.40
2019-03-04T19:00:17.956Z,5.73
2019-03-04T19:02:46.993Z,7.67
2019-03-04T19:05:15.608Z,6.47
2019-03-04T19:07:44.205Z,10.10
2019-03-04T19:10:13.400Z,7.43
2019-03-04T19:12:41.853Z,7.53
2019-03-04T19:15:11.592Z,11.80
2019-03-04T19:17:40.060Z,6.60
2019-03-04T19:20:17.987Z,7.73
2019-03-04T19:22:46.566Z,11.77
2019-03-04T19:25:15.244Z,5.40
2019-03-04T19:27:43.771Z,7.10
2019-03-04T19:30:16.398Z,7.63
2019-03-04T19:32:44.982Z,7.53
2019-03-04T19:35:15.133Z,9.87
2019-03-04T19:37:43.678Z,5.23
2019-03-04T19:40:13.857Z,5.77
2019-03-04T19:42:42.443Z,2.57
2019-03-04T19:45:21.527Z,2.87
2019-03-04T19:47:50.126Z,2.60
2019-03-04T19:50:19.882Z,1.47
2019-03-04T19:52:48.491Z,1.13
2019-03-04T19:55:17.796Z,1.13
2019-03-04T19:57:46.811Z,1.00
2019-03-04T20:00:22.108Z,1.03
2019-03-04T20:02:51.016Z,1.20
2019-03-04T20:05:21.577Z,1.60
2019-03-04T20:07:50.075Z,2.03
2019-03-04T20:10:19.341Z,1.63
2019-03-04T20:12:48.297Z,1.50
2019-03-04T20:15:27.708Z,2.30
2019-03-04T20:17:56.701Z,1.40
2019-03-04T20:20:25.394Z,1.70
2019-03-04T20:22:54.098Z,1.47
2019-03-04T20:25:23.644Z,1.77
2019-03-04T20:27:52.263Z,1.60
2019-03-04T20:30:25.449Z,2.70
2019-03-04T20:32:53.516Z,2.87
2019-03-04T20:35:22.712Z,2.27
2019-03-04T20:38:00.028Z,3.57
2019-03-04T20:40:28.569Z,2.23
2019-03-04T20:42:57.239Z,2.57
2019-03-04T20:45:25.810Z,2.90
2019-03-04T20:47:54.264Z,2.07
2019-03-04T20:50:24.047Z,3.27
2019-03-04T20:52:52.921Z,2.63
2019-03-04T20:55:22.063Z,1.90
2019-03-04T20:57:50.586Z,2.33
2019-03-04T21:00:28.609Z,2.67
2019-03-04T21:02:57.259Z,3.83
2019-03-04T21:05:26.065Z,5.00
2019-03-04T21:07:55.177Z,2.37
2019-03-04T21:10:23.895Z,4.63
2019-03-04T21:12:53.608Z,3.77
2019-03-04T21:15:22.819Z,3.87
2019-03-04T21:17:51.426Z,5.90
2019-03-04T21:20:20.317Z,5.60
2019-03-04T21:22:48.912Z,4.73
2019-03-04T21:25:41.603Z,7.30
2019-03-04T21:28:16.004Z,6.20
2019-03-04T21:30:59.432Z,4.17
2019-03-04T21:33:33.828Z,4.80
2019-03-04T21:36:20.652Z,4.47
2019-03-04T21:38:49.132Z,5.57
2019-03-04T21:41:27.244Z,5.50
2019-03-04T21:44:04.340Z,8.50
2019-03-04T21:46:54.249Z,7.87
2019-03-04T21:49:25.357Z,6.40
2019-03-04T21:52:20.548Z,6.53
2019-03-04T21:54:49.957Z,7.53
2019-03-04T21:57:21.564Z,6.80
2019-03-04T21:59:50.098Z,7.30
2019-03-04T22:02:24.862Z,5.07
2019-03-04T22:04:54.752Z,8.90
2019-03-04T22:07:23.457Z,7.70
2019-03-04T22:09:52.568Z,7.63
2019-03-04T22:12:21.273Z,5.10
2019-03-04T22:14:49.901Z,7.13
2019-03-04T22:17:18.468Z,8.43
2019-03-04T22:19:46.997Z,4.07
2019-03-04T22:22:15.443Z,7.77
2019-03-04T22:24:43.929Z,7.90
2019-03-04T22:27:12.397Z,9.67
2019-03-04T22:29:41.031Z,9.83
2019-03-04T22:32:09.647Z,6.23
2019-03-04T22:34:38.163Z,10.33
2019-03-04T22:37:06.754Z,8.13
2019-03-04T22:39:35.328Z,6.67
2019-03-04T22:42:03.949Z,7.33
2019-03-04T22:44:32.422Z,8.43
2019-03-04T22:47:00.972Z,7.60
2019-03-04T22:49:29.609Z,10.20
2019-03-04T22:51:58.080Z,8.23
2019-03-04T22:54:26.565Z,6.90
2019-03-04T22:56:55.098Z,7.93
2019-03-04T22:59:23.670Z,9.87
2019-03-04T23:01:55.598Z,9.10
2019-03-04T23:04:24.198Z,6.73
2019-03-04T23:06:55.732Z,9.73
2019-03-04T23:09:27.323Z,6.60
2019-03-04T23:12:04.446Z,8.47
2019-03-04T23:14:32.945Z,11.33
2019-03-04T23:17:01.428Z,7.87
2019-03-04T23:19:29.931Z,11.67
2019-03-04T23:21:58.413Z,11.03
2019-03-04T23:24:26.908Z,8.03
2019-03-04T23:26:55.423Z,10.90
2019-03-04T23:29:23.912Z,9.67
2019-03-04T23:31:52.411Z,11.50
2019-03-04T23:34:20.860Z,9.67
2019-03-04T23:36:49.479Z,10.03
2019-03-04T23:39:17.940Z,6.93
2019-03-04T23:41:46.411Z,10.70
2019-03-04T23:44:14.902Z,10.23
2019-03-04T23:46:43.373Z,9.10
2019-03-04T23:49:11.832Z,12.97
2019-03-04T23:51:40.385Z,10.33
2019-03-04T23:54:08.855Z,11.13
2019-03-04T23:56:37.338Z,13.23
2019-03-04T23:59:05.820Z,10.30
